Time;durP1;ratioP1;P1;durP2;ratioP2;P2;SDS_P1;SDS_P2;PMS_P1;PMS_P2;Temp;Humidity;BMP_temperature;BMP_pressure;BME280_temperature;BME280_humidity;BME280_pressure;Samples;Min_cycle;Max_cycle;Signal;HPM_P1;HPM_P2
2021/12/08 00:01:38;;;;;;;10.73;8.18;;;;;;;5.08;100.00;100099.00;4937261;29;20215;-73
2021/12/08 00:04:24;;;;;;;12.38;8.90;;;;;;;5.00;100.00;100106.84;4937427;29;20441;-73
2021/12/08 00:07:10;;;;;;;8.48;7.22;;;;;;;4.86;100.00;100108.63;4936953;29;20453;-73
2021/12/08 00:10:13;;;;;;;11.20;8.13;;;;;;;4.93;100.00;100120.72;4924062;29;20023;-73
2021/12/08 00:13:07;;;;;;;9.73;7.20;;;;;;;4.61;100.00;100114.78;4924614;29;20115;-72
2021/12/08 00:15:56;;;;;;;11.15;8.38;;;;;;;4.50;100.00;100121.72;4937411;29;20031;-73
2021/12/08 00:18:49;;;;;;;8.68;7.20;;;;;;;5.07;100.00;100118.91;4938577;29;20357;-73
2021/12/08 00:21:34;;;;;;;9.02;7.32;;;;;;;5.01;100.00;100112.88;4937483;29;20027;-73
2021/12/08 00:24:20;;;;;;;9.18;7.50;;;;;;;5.04;100.00;100115.47;4937276;29;20544;-72
2021/12/08 00:27:07;;;;;;;8.95;7.50;;;;;;;4.43;100.00;100114.81;4937154;29;20360;-73
2021/12/08 00:29:52;;;;;;;9.75;7.25;;;;;;;4.11;100.00;100124.38;4937407;29;20043;-72
2021/12/08 00:32:38;;;;;;;9.63;7.65;;;;;;;4.00;100.00;100130.44;4937473;29;20035;-73
2021/12/08 00:35:27;;;;;;;9.60;7.70;;;;;;;3.97;100.00;100126.13;4924728;29;20454;-73
2021/12/08 00:38:14;;;;;;;9.52;7.82;;;;;;;4.42;100.00;100130.41;4937831;29;20043;-72
2021/12/08 00:41:00;;;;;;;10.25;8.13;;;;;;;4.89;100.00;100128.50;4938058;29;20035;-72
2021/12/08 00:43:46;;;;;;;11.35;8.05;;;;;;;4.70;100.00;100132.03;4937996;29;20055;-73
2021/12/08 00:46:32;;;;;;;10.98;8.05;;;;;;;4.22;100.00;100121.81;4936793;29;20114;-73
2021/12/08 00:49:18;;;;;;;9.75;7.20;;;;;;;4.06;100.00;100131.31;4937150;29;20023;-72
2021/12/08 00:52:04;;;;;;;10.02;7.75;;;;;;;4.45;100.00;100125.19;4936810;29;20421;-74
2021/12/08 00:54:50;;;;;;;9.98;7.57;;;;;;;4.46;100.00;100112.22;4923060;29;20031;-73
2021/12/08 00:57:36;;;;;;;10.32;7.68;;;;;;;4.52;100.00;100126.91;4937310;29;20520;-73
2021/12/08 01:00:33;;;;;;;10.88;8.15;;;;;;;4.69;100.00;100131.19;4936914;29;20059;-73
2021/12/08 01:03:20;;;;;;;10.70;8.02;;;;;;;4.45;100.00;100132.97;4936643;29;20051;-72
2021/12/08 01:06:06;;;;;;;8.73;7.10;;;;;;;4.47;100.00;100137.28;4923573;29;20035;-72
2021/12/08 01:08:52;;;;;;;10.82;8.15;;;;;;;4.65;100.00;100132.06;4923224;29;20119;-73
2021/12/08 01:11:38;;;;;;;11.65;8.07;;;;;;;4.68;100.00;100136.38;4937015;29;20036;-74
2021/12/08 01:14:24;;;;;;;13.15;9.20;;;;;;;4.86;100.00;100138.88;4936114;29;20020;-73
2021/12/08 01:17:10;;;;;;;10.52;8.18;;;;;;;4.67;100.00;100142.44;4936781;29;20027;-73
2021/12/08 01:19:56;;;;;;;10.93;8.40;;;;;;;4.69;100.00;100130.31;4936997;29;20019;-73
2021/12/08 01:22:43;;;;;;;11.85;8.63;;;;;;;4.17;100.00;100139.94;4936539;29;20032;-73
2021/12/08 01:25:29;;;;;;;11.05;8.30;;;;;;;4.57;100.00;100136.41;4936827;29;20038;-72
2021/12/08 01:28:19;;;;;;;11.45;9.18;;;;;;;4.87;100.00;100131.09;4935716;29;20066;-73
2021/12/08 01:31:05;;;;;;;11.82;8.88;;;;;;;4.57;100.00;100125.16;4936537;29;20039;-73
2021/12/08 01:33:51;;;;;;;13.00;9.32;;;;;;;4.76;100.00;100142.41;4936384;29;20390;-72
2021/12/08 01:36:38;;;;;;;11.98;9.23;;;;;;;4.44;100.00;100134.72;4937239;29;20032;-73
2021/12/08 01:39:24;;;;;;;12.40;9.52;;;;;;;4.94;100.00;100138.00;4937156;29;20565;-72
2021/12/08 01:42:16;;;;;;;11.30;8.85;;;;;;;4.46;100.00;100134.72;4936895;29;20396;-73
2021/12/08 01:48:11;;;;;;;11.00;8.50;;;;;;;4.44;100.00;100147.69;4936154;29;20456;-73
2021/12/08 01:51:05;;;;;;;11.68;9.20;;;;;;;4.63;100.00;100140.72;4922897;29;20035;-74
2021/12/08 01:53:53;;;;;;;10.60;8.32;;;;;;;4.27;100.00;100149.41;4936709;29;20038;-73
2021/12/08 01:56:39;;;;;;;11.13;9.00;;;;;;;4.43;100.00;100148.53;4936144;29;20119;-73
2021/12/08 01:59:25;;;;;;;11.55;8.75;;;;;;;3.73;100.00;100152.03;4936211;29;20175;-73
2021/12/08 02:02:11;;;;;;;13.25;8.77;;;;;;;3.57;100.00;100158.06;4936463;29;20030;-73
2021/12/08 02:04:56;;;;;;;14.40;9.13;;;;;;;3.56;100.00;100164.13;4936054;29;20032;-73
2021/12/08 02:07:42;;;;;;;12.63;8.82;;;;;;;3.71;100.00;100165.84;4936645;29;20038;-73
2021/12/08 02:10:28;;;;;;;12.63;9.00;;;;;;;4.24;100.00;100161.53;4936486;29;20028;-73
2021/12/08 02:13:15;;;;;;;12.00;8.27;;;;;;;3.40;100.00;100166.66;4936060;29;20031;-72
2021/12/08 02:16:02;;;;;;;10.02;7.85;;;;;;;3.60;100.00;100165.84;4935872;29;20561;-72
2021/12/08 02:18:50;;;;;;;10.77;8.20;;;;;;;3.77;100.00;100171.91;4922754;29;20038;-72
2021/12/08 02:21:39;;;;;;;12.70;8.88;;;;;;;4.16;100.00;100169.34;4922471;29;20039;-72
2021/12/08 02:24:24;;;;;;;10.77;8.30;;;;;;;4.05;100.00;100167.59;4937956;29;20034;-73
2021/12/08 02:27:10;;;;;;;14.00;8.68;;;;;;;3.99;100.00;100171.03;4939321;29;20099;-74
2021/12/08 02:30:04;;;;;;;11.85;8.95;;;;;;;4.24;100.00;100166.72;4939914;29;20083;-70
2021/12/08 02:48:15;;;;;;;17.67;12.98;;;;;;;4.17;100.00;100181.41;4939643;29;20028;-71
2021/12/08 02:51:01;;;;;;;17.27;12.93;;;;;;;4.24;100.00;100180.56;4938914;29;20036;-73
2021/12/08 02:53:47;;;;;;;15.15;11.88;;;;;;;4.52;100.00;100171.00;4939586;29;20413;-72
2021/12/08 02:56:33;;;;;;;23.77;16.08;;;;;;;4.06;100.00;100184.88;4939534;29;20031;-72
2021/12/08 02:59:19;;;;;;;20.90;14.93;;;;;;;3.97;100.00;100177.97;4939410;29;20103;-72
2021/12/08 03:02:05;;;;;;;22.00;14.10;;;;;;;3.60;100.00;100186.56;4939113;29;20377;-72
2021/12/08 03:04:51;;;;;;;22.35;14.18;;;;;;;3.70;100.00;100188.28;4939498;29;20470;-72
2021/12/08 03:07:37;;;;;;;20.50;13.15;;;;;;;4.00;100.00;100192.66;4939440;29;20103;-72
2021/12/08 03:10:28;;;;;;;24.48;15.30;;;;;;;4.02;100.00;100194.38;4938817;29;20455;-72
2021/12/08 03:13:14;;;;;;;20.52;13.68;;;;;;;3.85;100.00;100203.00;4940016;29;20031;-72
2021/12/08 03:16:00;;;;;;;20.38;13.15;;;;;;;3.78;100.00;100202.13;4938481;29;20035;-74
2021/12/08 03:18:46;;;;;;;17.88;12.30;;;;;;;3.93;100.00;100193.50;4938979;29;20035;-71
2021/12/08 03:21:32;;;;;;;20.67;12.82;;;;;;;3.95;100.00;100207.34;4938881;29;20479;-73
2021/12/08 03:27:11;;;;;;;20.90;14.88;;;;;;;4.08;100.00;100199.56;4938821;29;20027;-71
2021/12/08 03:30:12;;;;;;;22.90;15.25;;;;;;;4.30;100.00;100197.84;4939323;29;20608;-72
2021/12/08 03:32:58;;;;;;;21.05;14.02;;;;;;;3.92;100.00;100199.56;4940411;28;20360;-72
2021/12/08 03:35:44;;;;;;;18.15;13.23;;;;;;;3.90;100.00;100196.09;4937979;29;20032;-72
2021/12/08 03:38:30;;;;;;;20.23;14.40;;;;;;;4.19;100.00;100204.75;4938174;29;20401;-72
2021/12/08 03:41:16;;;;;;;20.63;14.02;;;;;;;3.98;100.00;100205.59;4938652;29;20038;-74
2021/12/08 03:44:03;;;;;;;21.05;14.93;;;;;;;4.29;100.00;100201.28;4938400;29;20042;-72
2021/12/08 03:46:52;;;;;;;18.80;14.13;;;;;;;3.99;100.00;100212.50;4937987;29;20028;-73
2021/12/08 03:49:38;;;;;;;17.73;13.07;;;;;;;4.08;100.00;100207.34;4939380;29;20028;-72
2021/12/08 03:52:24;;;;;;;20.90;14.40;;;;;;;4.12;100.00;100206.47;4923771;29;20091;-72
2021/12/08 03:55:14;;;;;;;18.10;14.07;;;;;;;3.90;100.00;100212.50;4937962;29;20027;-72
2021/12/08 03:58:00;;;;;;;16.40;12.77;;;;;;;3.60;100.00;100216.75;4924389;29;20038;-72
2021/12/08 04:00:49;;;;;;;16.50;12.63;;;;;;;3.53;100.00;100223.66;4929944;29;20056;-71
2021/12/08 04:03:35;;;;;;;14.43;11.85;;;;;;;3.65;100.00;100225.41;4938132;29;20031;-71
2021/12/08 04:06:39;;;;;;;16.00;12.15;;;;;;;3.79;100.00;100228.91;4938337;29;20106;-71
2021/12/08 04:09:30;;;;;;;15.45;11.63;;;;;;;3.49;100.00;100229.69;4938255;29;20035;-71
2021/12/08 04:12:21;;;;;;;14.70;11.80;;;;;;;3.53;100.00;100231.44;4938582;29;20405;-73
2021/12/08 04:15:07;;;;;;;18.25;13.68;;;;;;;3.71;100.00;100236.66;4937993;29;20031;-71
2021/12/08 04:17:54;;;;;;;17.17;13.40;;;;;;;3.58;100.00;100244.41;4938189;29;20035;-72
2021/12/08 04:20:46;;;;;;;19.73;14.40;;;;;;;3.60;100.00;100243.53;4938482;28;20042;-72
2021/12/08 04:23:36;;;;;;;20.33;14.77;;;;;;;3.70;100.00;100244.44;4937894;29;20019;-72
2021/12/08 04:26:27;;;;;;;18.80;14.60;;;;;;;3.85;100.00;100249.63;4937809;29;20072;-72
2021/12/08 04:29:14;;;;;;;19.98;14.77;;;;;;;3.87;100.00;100247.91;4938119;29;20028;-72
2021/12/08 04:32:01;;;;;;;18.92;13.80;;;;;;;4.03;100.00;100260.03;4938812;28;20087;-73
2021/12/08 04:34:51;;;;;;;18.45;13.95;;;;;;;4.01;100.00;100261.75;4937653;29;20103;-72
2021/12/08 04:37:41;;;;;;;19.92;13.77;;;;;;;4.12;100.00;100268.69;4938006;29;20365;-72
2021/12/08 04:41:15;;;;;;;23.08;15.27;;;;;;;4.24;100.00;100260.94;4937475;29;20032;-72
2021/12/08 04:44:10;;;;;;;19.92;14.52;;;;;;;4.35;100.00;100264.38;4938282;28;20133;-72
2021/12/08 04:53:10;;;;;;;14.57;11.38;;;;;;;3.85;100.00;100275.53;4936776;29;20038;-72
2021/12/08 05:05:17;;;;;;;15.70;11.55;;;;;;;4.41;100.00;100284.25;4937660;28;20366;-72
2021/12/08 05:08:14;;;;;;;15.20;10.73;;;;;;;3.92;100.00;100282.47;4937434;29;20038;-71
2021/12/08 05:11:00;;;;;;;13.52;10.20;;;;;;;3.65;100.00;100282.38;4936726;29;20038;-72
2021/12/08 05:13:50;;;;;;;13.63;10.25;;;;;;;3.81;100.00;100284.16;4937206;29;20023;-72
2021/12/08 05:16:39;;;;;;;12.07;9.55;;;;;;;3.73;100.00;100284.16;4936991;29;20349;-71
2021/12/08 05:19:28;;;;;;;13.50;10.20;;;;;;;3.77;100.00;100292.78;4936051;29;20031;-72
2021/12/08 05:22:19;;;;;;;13.35;10.18;;;;;;;3.93;100.00;100294.56;4937252;28;20102;-72
2021/12/08 05:25:09;;;;;;;16.13;11.48;;;;;;;3.65;100.00;100296.22;4937515;29;20059;-72
2021/12/08 05:27:59;;;;;;;15.23;11.27;;;;;;;3.79;100.00;100296.25;4935690;29;20119;-72
2021/12/08 05:30:57;;;;;;;17.00;12.20;;;;;;;3.80;100.00;100296.28;4937249;29;20027;-72
2021/12/08 05:33:44;;;;;;;14.20;10.80;;;;;;;3.84;100.00;100297.13;4937976;28;20457;-72
2021/12/08 05:36:30;;;;;;;15.52;11.40;;;;;;;3.95;100.00;100306.66;4937397;29;20046;-71
2021/12/08 05:39:20;;;;;;;15.00;11.55;;;;;;;3.71;100.00;100311.78;4936912;29;20073;-71
2021/12/08 05:42:10;;;;;;;15.85;11.55;;;;;;;3.73;100.00;100315.22;4937030;29;20055;-72
2021/12/08 05:44:56;;;;;;;20.00;13.45;;;;;;;3.64;100.00;100316.91;4936941;29;20031;-71
2021/12/08 05:47:45;;;;;;;18.25;12.45;;;;;;;3.69;100.00;100317.78;4937257;29;20042;-72
2021/12/08 05:50:35;;;;;;;18.48;12.13;;;;;;;4.03;100.00;100319.66;4936799;29;20038;-71
2021/12/08 05:53:23;;;;;;;23.10;13.98;;;;;;;3.73;100.00;100322.13;4937223;29;20393;-72
2021/12/08 05:56:09;;;;;;;19.40;13.05;;;;;;;4.01;100.00;100322.22;4936810;29;20041;-71
2021/12/08 05:58:57;;;;;;;18.90;13.32;;;;;;;4.11;100.00;100331.75;4937232;29;20360;-72
2021/12/08 06:02:09;;;;;;;18.90;13.73;;;;;;;3.92;100.00;100332.56;4940980;29;20083;-70
2021/12/08 06:04:57;;;;;;;19.75;13.32;;;;;;;4.15;100.00;100341.25;4940883;29;20043;-71
2021/12/08 06:07:44;;;;;;;20.95;14.57;;;;;;;4.20;100.00;100338.69;4939872;29;20172;-71
2021/12/08 06:10:34;;;;;;;18.95;13.77;;;;;;;4.17;100.00;100342.13;4940331;29;20410;-72
2021/12/08 06:13:20;;;;;;;20.55;14.48;;;;;;;3.99;100.00;100346.41;4940839;28;20027;-73
2021/12/08 06:16:07;;;;;;;24.60;15.60;;;;;;;4.10;100.00;100355.09;4940641;28;20027;-73
2021/12/08 06:18:53;;;;;;;21.20;14.48;;;;;;;4.04;100.00;100353.34;4940374;29;20039;-72
2021/12/08 06:21:39;;;;;;;20.83;15.10;;;;;;;3.99;100.00;100349.84;4939468;29;20066;-72
2021/12/08 06:24:25;;;;;;;20.70;15.20;;;;;;;4.06;100.00;100358.53;4940558;29;20094;-71
2021/12/08 06:27:12;;;;;;;21.10;14.88;;;;;;;3.85;100.00;100361.91;4939245;29;20031;-71
2021/12/08 06:29:58;;;;;;;24.98;16.58;;;;;;;3.91;100.00;100356.72;4940089;29;20031;-72
2021/12/08 06:32:44;;;;;;;22.17;16.23;;;;;;;4.11;100.00;100362.00;4939697;29;20023;-72
2021/12/08 06:35:38;;;;;;;24.25;16.75;;;;;;;4.04;100.00;100363.72;4941139;28;20027;-72
2021/12/08 06:38:24;;;;;;;25.83;17.73;;;;;;;4.31;100.00;100368.94;4939699;29;20507;-70
2021/12/08 06:41:19;;;;;;;23.38;16.65;;;;;;;4.22;100.00;100370.69;4940098;29;20032;-72
2021/12/08 06:44:12;;;;;;;22.15;15.80;;;;;;;4.40;100.00;100371.56;4940064;29;20111;-71
2021/12/08 06:46:59;;;;;;;23.52;16.52;;;;;;;4.59;100.00;100378.50;4939567;29;20031;-71
2021/12/08 06:49:47;;;;;;;25.17;17.65;;;;;;;4.16;100.00;100375.81;4939837;29;20508;-72
2021/12/08 06:52:38;;;;;;;25.52;17.77;;;;;;;4.37;100.00;100389.72;4939683;29;20431;-71
2021/12/08 06:55:31;;;;;;;28.33;18.77;;;;;;;4.23;100.00;100395.72;4941029;28;20475;-73
2021/12/08 06:58:22;;;;;;;30.70;19.20;;;;;;;4.66;100.00;100403.59;4939454;29;20088;-72
2021/12/08 07:01:29;;;;;;;27.55;18.83;;;;;;;4.50;100.00;100396.66;4940412;28;20500;-72
2021/12/08 07:04:35;;;;;;;33.85;21.15;;;;;;;4.82;100.00;100402.75;4939769;29;20047;-72
2021/12/08 07:07:26;;;;;;;27.08;18.05;;;;;;;4.58;100.00;100405.31;4939232;29;20039;-72
2021/12/08 07:10:22;;;;;;;30.23;19.17;;;;;;;4.55;100.00;100415.66;4925123;29;20037;-72
2021/12/08 07:13:18;;;;;;;32.95;21.17;;;;;;;4.92;100.00;100407.09;4940071;29;20102;-71
2021/12/08 07:16:34;;;;;;;30.05;19.65;;;;;;;4.94;100.00;100407.94;4938545;29;20043;-72
2021/12/08 07:19:42;;;;;;;34.72;22.10;;;;;;;4.76;100.00;100410.53;4926710;29;20027;-72
2021/12/08 07:22:34;;;;;;;33.95;19.95;;;;;;;4.74;100.00;100408.78;4925028;29;20433;-71
2021/12/08 07:25:24;;;;;;;32.42;20.30;;;;;;;4.76;100.00;100405.34;4938728;29;20032;-72
2021/12/08 07:28:11;;;;;;;30.20;20.05;;;;;;;4.94;100.00;100414.84;4925015;29;20027;-73
2021/12/08 07:31:25;;;;;;;30.27;20.40;;;;;;;4.87;100.00;100406.19;4939199;29;20368;-72
2021/12/08 07:34:18;;;;;;;31.02;20.52;;;;;;;4.98;100.00;100420.03;4938765;29;20058;-71
2021/12/08 07:37:17;;;;;;;33.65;21.80;;;;;;;4.84;100.00;100420.91;4940414;28;20360;-71
2021/12/08 07:40:12;;;;;;;33.25;20.63;;;;;;;4.98;100.00;100426.97;4924792;29;20049;-73
2021/12/08 07:43:03;;;;;;;44.25;26.70;;;;;;;5.01;100.00;100425.25;4925291;29;20114;-71
2021/12/08 07:46:03;;;;;;;35.78;21.90;;;;;;;4.70;100.00;100422.59;4938384;29;20031;-72
2021/12/08 07:48:58;;;;;;;33.13;20.20;;;;;;;4.72;100.00;100426.97;4938322;29;20445;-71
2021/12/08 07:51:59;;;;;;;34.42;22.23;;;;;;;4.64;100.00;100430.41;4937980;29;20444;-71
2021/12/08 07:54:48;;;;;;;35.03;21.67;;;;;;;4.77;100.00;100439.94;4938153;29;20536;-71
2021/12/08 07:57:34;;;;;;;38.72;23.98;;;;;;;5.18;100.00;100449.47;4937800;29;20039;-72
2021/12/08 08:00:49;;;;;;;38.55;23.80;;;;;;;5.02;100.00;100458.13;4937803;29;20058;-72
2021/12/08 08:03:38;;;;;;;36.03;23.00;;;;;;;4.92;100.00;100453.81;4938716;29;20103;-71
2021/12/08 08:06:28;;;;;;;38.03;23.95;;;;;;;5.20;100.00;100462.47;4937853;29;20118;-72
2021/12/08 08:09:19;;;;;;;38.70;24.05;;;;;;;5.53;100.00;100462.44;4938640;29;20032;-72
2021/12/08 08:12:07;;;;;;;43.63;25.88;;;;;;;5.34;100.00;100453.78;4937042;29;20031;-71
2021/12/08 08:14:56;;;;;;;40.67;24.90;;;;;;;5.11;100.00;100452.06;4938910;29;20095;-71
2021/12/08 08:17:45;;;;;;;41.13;24.85;;;;;;;5.12;100.00;100459.00;4939248;28;20063;-71
2021/12/08 08:20:36;;;;;;;41.47;25.90;;;;;;;5.01;100.00;100463.31;4937513;29;20457;-73
2021/12/08 08:23:26;;;;;;;47.17;27.50;;;;;;;5.19;100.00;100464.19;4936965;29;20042;-73
2021/12/08 08:26:14;;;;;;;41.00;25.13;;;;;;;4.90;100.00;100463.31;4936733;29;20027;-71
2021/12/08 08:29:00;;;;;;;45.15;26.98;;;;;;;4.87;100.00;100465.88;4937181;29;20039;-72
2021/12/08 08:31:58;;;;;;;42.63;25.40;;;;;;;5.48;100.00;100465.03;4924313;29;20357;-72
2021/12/08 08:34:45;;;;;;;47.17;27.42;;;;;;;5.37;100.00;100460.72;4937597;29;20078;-71
2021/12/08 08:37:31;;;;;;;45.72;26.88;;;;;;;5.36;100.00;100471.97;4924005;29;20433;-72
2021/12/08 08:40:47;;;;;;;45.00;26.60;;;;;;;5.26;100.00;100465.03;4937635;29;20364;-72
2021/12/08 08:43:34;;;;;;;45.28;26.30;;;;;;;5.29;100.00;100465.91;4938051;29;20432;-72
2021/12/08 08:46:24;;;;;;;45.33;26.70;;;;;;;5.47;100.00;100457.25;4936957;29;20354;-73
2021/12/08 08:49:19;;;;;;;48.75;27.38;;;;;;;5.24;100.00;100456.41;4938147;29;20027;-72
2021/12/08 08:52:26;;;;;;;49.10;28.25;;;;;;;5.43;100.00;100457.25;4936951;29;20039;-72
2021/12/08 08:55:28;;;;;;;46.42;27.05;;;;;;;5.32;100.00;100444.28;4937250;29;20414;-72
2021/12/08 08:58:15;;;;;;;48.22;27.42;;;;;;;5.51;100.00;100437.31;4937297;29;20405;-73
2021/12/08 09:01:09;;;;;;;49.42;28.33;;;;;;;5.47;100.00;100443.38;4937868;29;20055;-73
2021/12/08 09:04:00;;;;;;;47.65;27.48;;;;;;;5.43;100.00;100449.47;4936679;29;20024;-72
2021/12/08 09:06:51;;;;;;;42.75;25.42;;;;;;;5.63;100.00;100447.69;4936782;29;20043;-72
2021/12/08 09:09:41;;;;;;;48.33;28.15;;;;;;;5.74;100.00;100428.59;4923936;29;20405;-73
2021/12/08 09:12:33;;;;;;;44.90;27.23;;;;;;;6.30;100.00;100434.47;4937061;29;20043;-72
2021/12/08 09:15:27;;;;;;;49.88;29.05;;;;;;;5.99;100.00;100426.84;4936567;29;20361;-73
2021/12/08 09:18:20;;;;;;;43.80;27.27;;;;;;;6.37;100.00;100420.59;4922544;29;20360;-71
2021/12/08 09:21:17;;;;;;;47.20;27.83;;;;;;;6.59;100.00;100421.31;4923616;29;20038;-72
2021/12/08 09:24:33;;;;;;;45.45;26.85;;;;;;;5.65;100.00;100414.75;4922788;29;20031;-71
2021/12/08 09:27:30;;;;;;;48.55;27.73;;;;;;;5.76;100.00;100421.69;4936271;29;20376;-72
2021/12/08 09:30:32;;;;;;;51.47;28.10;;;;;;;6.03;100.00;100408.59;4937032;29;20046;-73
2021/12/08 09:33:25;;;;;;;50.70;29.00;;;;;;;5.88;100.00;100394.81;4923707;29;20038;-72
2021/12/08 09:36:19;;;;;;;52.67;30.75;;;;;;;5.86;100.00;100404.34;4928009;29;20445;-72
2021/12/08 09:39:25;;;;;;;53.20;31.23;;;;;;;5.98;100.00;100406.91;4940492;29;20087;-72
2021/12/08 09:42:17;;;;;;;60.35;33.55;;;;;;;6.15;100.00;100402.50;4927176;29;20039;-72
2021/12/08 09:45:17;;;;;;;55.67;31.40;;;;;;;6.12;100.00;100403.38;4939870;29;20059;-70
2021/12/08 09:48:06;;;;;;;53.67;30.05;;;;;;;6.26;100.00;100405.91;4941403;29;20095;-72
2021/12/08 09:50:52;;;;;;;50.50;29.40;;;;;;;5.82;100.00;100413.88;4940951;29;20376;-73
2021/12/08 09:53:40;;;;;;;52.35;30.17;;;;;;;5.90;100.00;100406.06;4940823;29;20119;-72
2021/12/08 09:56:27;;;;;;;49.42;28.58;;;;;;;5.71;100.00;100412.16;4939540;29;20035;-72
2021/12/08 09:59:13;;;;;;;51.50;27.85;;;;;;;5.96;100.00;100412.13;4925601;29;20034;-73
2021/12/08 10:02:03;;;;;;;54.35;30.02;;;;;;;5.97;100.00;100408.63;4925523;29;20054;-72
2021/12/08 10:04:48;;;;;;;50.00;29.10;;;;;;;5.90;100.00;100404.31;4939814;29;20118;-71
2021/12/08 10:07:35;;;;;;;50.50;27.92;;;;;;;5.93;100.00;100404.31;4939827;29;20063;-72
2021/12/08 10:10:21;;;;;;;51.75;27.95;;;;;;;6.17;100.00;100411.13;4925061;29;20122;-72
2021/12/08 10:13:08;;;;;;;50.78;28.85;;;;;;;5.83;100.00;100409.56;4940883;29;20036;-72
2021/12/08 10:15:54;;;;;;;56.40;30.83;;;;;;;6.18;100.00;100405.09;4940740;29;20027;-72
2021/12/08 10:18:42;;;;;;;56.58;31.33;;;;;;;6.06;100.00;100406.00;4940037;29;20027;-72
2021/12/08 10:21:36;;;;;;;55.88;31.40;;;;;;;5.77;100.00;100407.81;4941013;29;20031;-71
2021/12/08 10:24:31;;;;;;;56.38;32.13;;;;;;;5.96;100.00;100403.44;4939554;29;20035;-73
2021/12/08 10:27:17;;;;;;;60.25;32.78;;;;;;;6.12;100.00;100408.56;4940461;29;20032;-72
2021/12/08 10:30:23;;;;;;;55.70;31.67;;;;;;;6.06;100.00;100398.19;4940176;29;20460;-71
2021/12/08 10:39:31;;;;;;;53.58;29.83;;;;;;;5.69;100.00;100419.06;4939091;29;20027;-72
2021/12/08 10:42:29;;;;;;;56.92;30.67;;;;;;;5.84;100.00;100413.88;4939917;29;20043;-72
2021/12/08 10:45:22;;;;;;;56.88;32.20;;;;;;;6.19;100.00;100402.44;4938798;29;20115;-72
2021/12/08 10:48:09;;;;;;;56.92;33.80;;;;;;;6.09;100.00;100403.38;4939167;29;20166;-71
2021/12/08 10:57:37;;;;;;;63.83;36.78;;;;;;;6.13;100.00;100406.81;4939323;29;20079;-71
2021/12/08 11:00:30;;;;;;;61.17;35.03;;;;;;;6.23;100.00;100400.72;4940453;29;20370;-72
2021/12/08 11:03:16;;;;;;;63.88;33.72;;;;;;;6.07;100.00;100404.25;4938959;29;20023;-72
2021/12/08 11:06:04;;;;;;;66.30;35.47;;;;;;;6.37;100.00;100415.38;4940712;28;20396;-72
2021/12/08 11:08:53;;;;;;;62.08;34.53;;;;;;;5.96;100.00;100406.03;4938637;29;20131;-72
2021/12/08 11:11:43;;;;;;;59.72;35.22;;;;;;;6.30;100.00;100408.47;4938973;29;20039;-73
2021/12/08 11:14:42;;;;;;;64.03;34.53;;;;;;;6.51;100.00;100399.69;4940760;28;20039;-72
2021/12/08 11:17:31;;;;;;;61.47;33.13;;;;;;;6.36;100.00;100395.44;4939383;29;20035;-72
2021/12/08 11:20:29;;;;;;;54.88;30.77;;;;;;;6.16;100.00;100404.22;4942912;29;20031;-72
2021/12/08 11:23:28;;;;;;;54.78;30.17;;;;;;;6.08;100.00;100393.84;4938904;29;20452;-71
2021/12/08 11:26:37;;;;;;;53.97;29.67;;;;;;;6.21;100.00;100402.44;4939284;29;20056;-71
2021/12/08 11:29:25;;;;;;;52.97;31.13;;;;;;;6.58;100.00;100388.34;4938860;29;20023;-72
2021/12/08 11:32:18;;;;;;;47.65;28.00;;;;;;;5.98;100.00;100414.72;4938610;29;20063;-71
2021/12/08 11:35:05;;;;;;;48.28;28.50;;;;;;;6.48;100.00;100408.38;4938043;29;20127;-72
2021/12/08 11:37:59;;;;;;;47.13;27.88;;;;;;;6.41;100.00;100403.22;4939874;29;20035;-71
2021/12/08 11:40:45;;;;;;;48.13;28.20;;;;;;;6.32;100.00;100405.88;4939153;29;20370;-72
2021/12/08 11:43:30;;;;;;;49.00;27.67;;;;;;;6.22;100.00;100399.00;4938589;29;20031;-72
2021/12/08 11:46:17;;;;;;;46.17;27.17;;;;;;;6.42;100.00;100408.41;4937858;29;20044;-72
2021/12/08 11:49:06;;;;;;;47.88;26.90;;;;;;;6.25;100.00;100409.38;4938472;29;20027;-72
2021/12/08 11:52:15;;;;;;;46.15;27.80;;;;;;;6.32;100.00;100416.28;4937922;29;20067;-72
2021/12/08 11:55:09;;;;;;;47.30;28.00;;;;;;;6.62;100.00;100416.94;4940294;28;20024;-72
2021/12/08 11:57:57;;;;;;;46.63;26.95;;;;;;;6.31;100.00;100417.16;4938110;29;20039;-72
2021/12/08 12:00:48;;;;;;;45.55;26.83;;;;;;;6.46;100.00;100414.44;4939007;29;20126;-71
2021/12/08 12:03:33;;;;;;;44.58;26.33;;;;;;;6.48;100.00;100428.31;4938157;29;20437;-71
2021/12/08 12:06:27;;;;;;;44.50;26.42;;;;;;;6.60;100.00;100423.06;4938766;29;20476;-72
2021/12/08 12:09:13;;;;;;;44.10;26.33;;;;;;;7.02;100.00;100417.53;4937534;29;20031;-71
2021/12/08 12:11:59;;;;;;;43.50;25.98;;;;;;;6.42;100.00;100429.22;4939450;28;20031;-71
2021/12/08 12:14:45;;;;;;;44.47;26.02;;;;;;;6.60;100.00;100428.25;4923133;29;20043;-71
2021/12/08 12:17:31;;;;;;;45.03;26.60;;;;;;;6.69;100.00;100431.66;4939003;29;20059;-72
2021/12/08 12:20:39;;;;;;;44.42;25.52;;;;;;;6.94;100.00;100430.63;4938543;29;20038;-71
2021/12/08 12:23:46;;;;;;;43.45;26.33;;;;;;;6.67;100.00;100438.59;4925016;29;20079;-71
2021/12/08 12:26:53;;;;;;;42.97;25.65;;;;;;;6.75;100.00;100436.81;4937810;29;20038;-71
2021/12/08 12:29:51;;;;;;;45.47;26.35;;;;;;;6.54;100.00;100436.97;4937826;29;20059;-72
2021/12/08 12:32:52;;;;;;;43.15;25.85;;;;;;;6.32;100.00;100439.69;4938734;29;20034;-71
2021/12/08 12:35:47;;;;;;;43.92;26.17;;;;;;;6.69;100.00;100444.69;4937639;29;20464;-72
2021/12/08 12:38:36;;;;;;;43.70;26.13;;;;;;;6.33;100.00;100446.59;4937327;29;20039;-71
2021/12/08 12:41:31;;;;;;;45.67;26.58;;;;;;;6.66;100.00;100451.63;4937237;29;20445;-71
2021/12/08 12:44:20;;;;;;;45.78;26.48;;;;;;;6.78;100.00;100441.13;4924092;29;20060;-71
2021/12/08 12:50:14;;;;;;;40.08;24.05;;;;;;;6.34;100.00;100450.97;4937944;29;20058;-72
2021/12/08 12:53:00;;;;;;;45.00;25.52;;;;;;;6.71;100.00;100457.69;4937393;29;20042;-72
2021/12/08 12:55:46;;;;;;;43.17;25.35;;;;;;;6.33;100.00;100454.41;4937012;29;20123;-71
2021/12/08 12:58:53;;;;;;;44.70;26.00;;;;;;;5.92;100.00;100465.00;4936743;29;20059;-72
2021/12/08 13:01:44;;;;;;;44.20;25.60;;;;;;;6.31;100.00;100467.41;4937415;29;20048;-71
2021/12/08 13:04:32;;;;;;;45.90;26.83;;;;;;;5.89;100.00;100475.38;4936573;29;20055;-71
2021/12/08 13:07:19;;;;;;;44.40;26.15;;;;;;;6.29;100.00;100463.09;4936607;29;20038;-71
2021/12/08 13:10:15;;;;;;;45.47;26.13;;;;;;;6.73;100.00;100466.34;4936642;29;20452;-72
2021/12/08 13:13:12;;;;;;;43.72;25.58;;;;;;;6.65;100.00;100468.13;4937309;29;20366;-73
2021/12/08 13:15:58;;;;;;;44.33;26.67;;;;;;;6.65;100.00;100466.41;4936495;29;20035;-71
2021/12/08 13:19:02;;;;;;;45.50;27.00;;;;;;;6.94;100.00;100469.69;4923860;29;20107;-72
2021/12/08 13:21:49;;;;;;;45.85;27.48;;;;;;;7.04;100.00;100473.09;4936616;29;20095;-72
2021/12/08 13:24:41;;;;;;;43.33;26.48;;;;;;;6.62;100.00;100475.94;4923782;29;20036;-71
2021/12/08 13:27:29;;;;;;;47.08;26.63;;;;;;;6.69;100.00;100480.25;4936931;29;20032;-71
2021/12/08 13:30:17;;;;;;;46.25;27.63;;;;;;;6.99;100.00;100480.06;4937036;29;20434;-72
2021/12/08 13:33:09;;;;;;;45.00;26.15;;;;;;;6.89;100.00;100481.88;4936731;29;20040;-72
2021/12/08 13:35:57;;;;;;;44.60;26.95;;;;;;;6.69;100.00;100488.94;4922924;29;20028;-71
2021/12/08 13:38:43;;;;;;;47.78;27.73;;;;;;;6.92;100.00;100486.19;4936619;29;20326;-72
2021/12/08 13:41:32;;;;;;;42.53;26.38;;;;;;;6.89;100.00;100479.28;4936729;29;20031;-72
2021/12/08 13:44:23;;;;;;;42.70;26.02;;;;;;;6.72;100.00;100481.13;4936587;29;20028;-72
2021/12/08 13:47:23;;;;;;;43.95;26.75;;;;;;;6.57;100.00;100488.13;4936853;29;20127;-71
2021/12/08 13:50:12;;;;;;;47.15;26.85;;;;;;;6.74;100.00;100489.75;4936708;29;20044;-71
2021/12/08 13:53:06;;;;;;;43.85;26.85;;;;;;;6.40;100.00;100488.22;4937855;28;20043;-72